sensor_id;sensor_type;location;lat;lon;timestamp;temperature;humidity
17938;DHT22;16051;53.024;8.630;2023-02-26T00:02:55;2.10;99.90
17938;DHT22;16051;53.024;8.630;2023-02-26T00:06:59;2.10;99.90
17938;DHT22;16051;53.024;8.630;2023-02-26T00:11:32;2.10;99.90
17938;DHT22;16051;53.024;8.630;2023-02-26T00:15:42;2.00;99.90
17938;DHT22;16051;53.024;8.630;2023-02-26T00:24:44;2.00;99.90
17938;DHT22;16051;53.024;8.630;2023-02-26T00:28:47;1.90;99.90
17938;DHT22;16051;53.024;8.630;2023-02-26T00:33:10;1.90;99.90
17938;DHT22;16051;53.024;8.630;2023-02-26T00:37:26;1.90;99.90
17938;DHT22;16051;53.024;8.630;2023-02-26T00:41:42;1.90;99.90
17938;DHT22;16051;53.024;8.630;2023-02-26T00:45:57;1.80;99.90
17938;DHT22;16051;53.024;8.630;2023-02-26T00:50:11;1.80;99.90
17938;DHT22;16051;53.024;8.630;2023-02-26T00:54:40;1.80;99.90
17938;DHT22;16051;53.024;8.630;2023-02-26T00:58:53;1.70;99.90
17938;DHT22;16051;53.024;8.630;2023-02-26T01:02:55;1.70;99.90
17938;DHT22;16051;53.024;8.630;2023-02-26T01:06:58;1.70;99.90
17938;DHT22;16051;53.024;8.630;2023-02-26T01:11:01;1.60;99.90
17938;DHT22;16051;53.024;8.630;2023-02-26T01:15:06;1.60;99.90
17938;DHT22;16051;53.024;8.630;2023-02-26T01:19:17;1.60;99.90
17938;DHT22;16051;53.024;8.630;2023-02-26T01:23:26;1.50;99.90
17938;DHT22;16051;53.024;8.630;2023-02-26T01:27:35;1.50;99.90
17938;DHT22;16051;53.024;8.630;2023-02-26T01:31:45;1.40;99.90
17938;DHT22;16051;53.024;8.630;2023-02-26T01:35:57;1.40;99.90
17938;DHT22;16051;53.024;8.630;2023-02-26T01:44:58;1.40;99.90
17938;DHT22;16051;53.024;8.630;2023-02-26T01:49:07;1.40;99.90
17938;DHT22;16051;53.024;8.630;2023-02-26T01:53:19;1.30;99.90
17938;DHT22;16051;53.024;8.630;2023-02-26T01:57:24;1.30;99.90
17938;DHT22;16051;53.024;8.630;2023-02-26T02:01:26;1.30;99.90
17938;DHT22;16051;53.024;8.630;2023-02-26T02:05:32;1.30;99.90
17938;DHT22;16051;53.024;8.630;2023-02-26T02:09:44;1.20;99.90
17938;DHT22;16051;53.024;8.630;2023-02-26T02:13:58;1.30;99.90
17938;DHT22;16051;53.024;8.630;2023-02-26T02:18:15;1.20;99.90
17938;DHT22;16051;53.024;8.630;2023-02-26T02:22:39;1.20;99.90
17938;DHT22;16051;53.024;8.630;2023-02-26T02:27:02;1.10;99.90
17938;DHT22;16051;53.024;8.630;2023-02-26T02:31:16;1.10;99.90
17938;DHT22;16051;53.024;8.630;2023-02-26T02:35:37;1.10;99.90
17938;DHT22;16051;53.024;8.630;2023-02-26T02:39:46;1.10;99.90
17938;DHT22;16051;53.024;8.630;2023-02-26T02:43:53;1.10;99.90
17938;DHT22;16051;53.024;8.630;2023-02-26T02:48:03;1.10;99.90
17938;DHT22;16051;53.024;8.630;2023-02-26T02:52:14;1.10;99.90
17938;DHT22;16051;53.024;8.630;2023-02-26T02:56:26;1.00;99.90
17938;DHT22;16051;53.024;8.630;2023-02-26T03:00:48;1.00;99.90
17938;DHT22;16051;53.024;8.630;2023-02-26T03:04:53;1.00;99.90
17938;DHT22;16051;53.024;8.630;2023-02-26T03:08:55;1.00;99.90
17938;DHT22;16051;53.024;8.630;2023-02-26T03:12:59;0.90;99.90
17938;DHT22;16051;53.024;8.630;2023-02-26T03:17:19;0.90;99.90
17938;DHT22;16051;53.024;8.630;2023-02-26T03:21:34;0.90;99.90
17938;DHT22;16051;53.024;8.630;2023-02-26T03:25:46;0.90;99.90
17938;DHT22;16051;53.024;8.630;2023-02-26T03:29:55;0.90;99.90
17938;DHT22;16051;53.024;8.630;2023-02-26T03:34:05;0.90;99.90
17938;DHT22;16051;53.024;8.630;2023-02-26T03:38:18;0.90;99.90
17938;DHT22;16051;53.024;8.630;2023-02-26T03:42:28;0.80;99.90
17938;DHT22;16051;53.024;8.630;2023-02-26T03:46:51;0.80;99.90
17938;DHT22;16051;53.024;8.630;2023-02-26T03:50:59;0.70;99.90
17938;DHT22;16051;53.024;8.630;2023-02-26T03:55:09;0.70;99.90
17938;DHT22;16051;53.024;8.630;2023-02-26T03:59:16;0.60;99.90
17938;DHT22;16051;53.024;8.630;2023-02-26T04:03:42;0.70;99.90
17938;DHT22;16051;53.024;8.630;2023-02-26T04:07:47;0.60;99.90
17938;DHT22;16051;53.024;8.630;2023-02-26T04:11:53;0.60;99.90
17938;DHT22;16051;53.024;8.630;2023-02-26T04:16:21;0.60;99.90
17938;DHT22;16051;53.024;8.630;2023-02-26T04:20:23;0.60;99.90
17938;DHT22;16051;53.024;8.630;2023-02-26T04:24:25;0.60;99.90
17938;DHT22;16051;53.024;8.630;2023-02-26T04:28:29;0.60;99.90
17938;DHT22;16051;53.024;8.630;2023-02-26T04:32:31;0.50;99.90
17938;DHT22;16051;53.024;8.630;2023-02-26T04:36:33;0.60;99.90
17938;DHT22;16051;53.024;8.630;2023-02-26T04:40:43;0.50;99.90
17938;DHT22;16051;53.024;8.630;2023-02-26T04:44:47;0.50;99.90
17938;DHT22;16051;53.024;8.630;2023-02-26T04:48:50;0.50;99.90
17938;DHT22;16051;53.024;8.630;2023-02-26T04:52:52;0.50;99.90
17938;DHT22;16051;53.024;8.630;2023-02-26T04:56:55;0.60;99.90
17938;DHT22;16051;53.024;8.630;2023-02-26T05:00:59;0.50;99.90
17938;DHT22;16051;53.024;8.630;2023-02-26T05:05:02;0.50;99.90
17938;DHT22;16051;53.024;8.630;2023-02-26T05:09:04;0.40;99.90
17938;DHT22;16051;53.024;8.630;2023-02-26T05:13:09;0.50;99.90
17938;DHT22;16051;53.024;8.630;2023-02-26T05:17:13;0.40;99.90
17938;DHT22;16051;53.024;8.630;2023-02-26T05:21:15;0.40;99.90
17938;DHT22;16051;53.024;8.630;2023-02-26T05:25:17;0.30;99.90
17938;DHT22;16051;53.024;8.630;2023-02-26T05:29:29;0.30;99.90
17938;DHT22;16051;53.024;8.630;2023-02-26T05:33:32;0.30;99.90
17938;DHT22;16051;53.024;8.630;2023-02-26T05:37:35;0.30;99.90
17938;DHT22;16051;53.024;8.630;2023-02-26T05:41:37;0.20;99.90
17938;DHT22;16051;53.024;8.630;2023-02-26T05:45:39;0.20;99.90
17938;DHT22;16051;53.024;8.630;2023-02-26T05:49:48;0.10;99.90
17938;DHT22;16051;53.024;8.630;2023-02-26T05:53:50;0.20;99.90
17938;DHT22;16051;53.024;8.630;2023-02-26T05:57:52;0.20;99.90
17938;DHT22;16051;53.024;8.630;2023-02-26T06:01:58;0.10;99.90
17938;DHT22;16051;53.024;8.630;2023-02-26T06:06:02;0.20;99.90
17938;DHT22;16051;53.024;8.630;2023-02-26T06:10:05;0.20;99.90
17938;DHT22;16051;53.024;8.630;2023-02-26T06:14:09;0.20;99.90
17938;DHT22;16051;53.024;8.630;2023-02-26T06:18:11;0.10;99.90
17938;DHT22;16051;53.024;8.630;2023-02-26T06:22:15;0.20;99.90
17938;DHT22;16051;53.024;8.630;2023-02-26T06:26:17;0.20;99.90
17938;DHT22;16051;53.024;8.630;2023-02-26T06:30:19;0.10;99.90
17938;DHT22;16051;53.024;8.630;2023-02-26T06:34:24;0.20;99.90
17938;DHT22;16051;53.024;8.630;2023-02-26T06:38:28;0.10;99.90
17938;DHT22;16051;53.024;8.630;2023-02-26T06:42:30;0.20;99.90
17938;DHT22;16051;53.024;8.630;2023-02-26T06:46:32;0.20;99.90
17938;DHT22;16051;53.024;8.630;2023-02-26T06:50:34;0.20;99.90
17938;DHT22;16051;53.024;8.630;2023-02-26T06:54:38;0.20;99.90
17938;DHT22;16051;53.024;8.630;2023-02-26T06:58:40;0.20;99.90
17938;DHT22;16051;53.024;8.630;2023-02-26T07:02:42;0.20;99.90
17938;DHT22;16051;53.024;8.630;2023-02-26T07:06:44;0.30;99.90
17938;DHT22;16051;53.024;8.630;2023-02-26T07:10:48;0.30;99.90
17938;DHT22;16051;53.024;8.630;2023-02-26T07:14:50;0.40;99.90
17938;DHT22;16051;53.024;8.630;2023-02-26T07:18:55;0.40;99.90
17938;DHT22;16051;53.024;8.630;2023-02-26T07:22:57;0.40;99.90
17938;DHT22;16051;53.024;8.630;2023-02-26T07:27:01;0.50;99.90
17938;DHT22;16051;53.024;8.630;2023-02-26T07:31:09;0.60;99.90
17938;DHT22;16051;53.024;8.630;2023-02-26T07:35:12;0.60;99.90
17938;DHT22;16051;53.024;8.630;2023-02-26T07:39:14;0.70;99.90
17938;DHT22;16051;53.024;8.630;2023-02-26T07:43:26;0.90;99.90
17938;DHT22;16051;53.024;8.630;2023-02-26T07:47:29;1.00;99.90
17938;DHT22;16051;53.024;8.630;2023-02-26T07:51:31;1.30;99.90
17938;DHT22;16051;53.024;8.630;2023-02-26T07:55:43;1.70;99.90
17938;DHT22;16051;53.024;8.630;2023-02-26T07:59:47;2.10;99.90
17938;DHT22;16051;53.024;8.630;2023-02-26T08:03:49;2.30;99.90
17938;DHT22;16051;53.024;8.630;2023-02-26T08:07:52;2.50;99.90
17938;DHT22;16051;53.024;8.630;2023-02-26T08:11:54;2.80;99.90
17938;DHT22;16051;53.024;8.630;2023-02-26T08:15:58;3.10;99.90
17938;DHT22;16051;53.024;8.630;2023-02-26T08:20:02;3.20;99.90
17938;DHT22;16051;53.024;8.630;2023-02-26T08:24:05;3.40;99.90
17938;DHT22;16051;53.024;8.630;2023-02-26T08:28:08;3.50;99.90
17938;DHT22;16051;53.024;8.630;2023-02-26T08:32:11;3.70;99.90
17938;DHT22;16051;53.024;8.630;2023-02-26T08:36:15;3.80;99.90
17938;DHT22;16051;53.024;8.630;2023-02-26T08:40:29;3.90;99.90
17938;DHT22;16051;53.024;8.630;2023-02-26T08:44:32;3.90;99.90
17938;DHT22;16051;53.024;8.630;2023-02-26T08:48:43;3.90;99.90
17938;DHT22;16051;53.024;8.630;2023-02-26T08:52:47;3.80;99.90
17938;DHT22;16051;53.024;8.630;2023-02-26T08:56:49;4.70;99.90
17938;DHT22;16051;53.024;8.630;2023-02-26T09:00:52;5.70;99.90
17938;DHT22;16051;53.024;8.630;2023-02-26T09:04:56;4.80;99.90
17938;DHT22;16051;53.024;8.630;2023-02-26T09:08:58;4.40;99.90
17938;DHT22;16051;53.024;8.630;2023-02-26T09:13:00;4.30;99.90
17938;DHT22;16051;53.024;8.630;2023-02-26T09:17:03;4.30;99.90
17938;DHT22;16051;53.024;8.630;2023-02-26T09:21:06;4.40;99.90
17938;DHT22;16051;53.024;8.630;2023-02-26T09:25:09;4.40;99.90
17938;DHT22;16051;53.024;8.630;2023-02-26T09:29:11;4.60;99.90
17938;DHT22;16051;53.024;8.630;2023-02-26T09:33:14;4.80;99.90
17938;DHT22;16051;53.024;8.630;2023-02-26T09:37:18;5.10;99.90
17938;DHT22;16051;53.024;8.630;2023-02-26T09:41:30;5.70;99.90
17938;DHT22;16051;53.024;8.630;2023-02-26T09:45:47;6.00;99.90
17938;DHT22;16051;53.024;8.630;2023-02-26T09:49:55;6.40;99.90
17938;DHT22;16051;53.024;8.630;2023-02-26T09:54:11;6.90;99.90
17938;DHT22;16051;53.024;8.630;2023-02-26T09:58:20;7.40;99.90
17938;DHT22;16051;53.024;8.630;2023-02-26T10:02:35;7.80;99.90
17938;DHT22;16051;53.024;8.630;2023-02-26T10:06:52;8.40;99.90
17938;DHT22;16051;53.024;8.630;2023-02-26T10:11:12;8.80;99.90
17938;DHT22;16051;53.024;8.630;2023-02-26T10:15:23;9.30;99.90
17938;DHT22;16051;53.024;8.630;2023-02-26T10:19:34;9.50;99.90
17938;DHT22;16051;53.024;8.630;2023-02-26T10:23:43;9.80;99.90
17938;DHT22;16051;53.024;8.630;2023-02-26T10:27:58;10.30;98.40
17938;DHT22;16051;53.024;8.630;2023-02-26T10:32:14;10.90;96.40
17938;DHT22;16051;53.024;8.630;2023-02-26T10:36:26;11.40;94.20
17938;DHT22;16051;53.024;8.630;2023-02-26T10:40:36;11.60;92.70
17938;DHT22;16051;53.024;8.630;2023-02-26T10:44:50;12.10;91.90
17938;DHT22;16051;53.024;8.630;2023-02-26T10:49:19;12.70;90.70
17938;DHT22;16051;53.024;8.630;2023-02-26T10:53:36;13.10;88.40
17938;DHT22;16051;53.024;8.630;2023-02-26T10:57:46;13.40;85.60
17938;DHT22;16051;53.024;8.630;2023-02-26T11:02:00;13.40;82.10
17938;DHT22;16051;53.024;8.630;2023-02-26T11:06:04;13.10;82.10
17938;DHT22;16051;53.024;8.630;2023-02-26T11:10:13;13.10;82.10
17938;DHT22;16051;53.024;8.630;2023-02-26T11:14:19;13.70;79.40
17938;DHT22;16051;53.024;8.630;2023-02-26T11:18:27;14.30;78.00
17938;DHT22;16051;53.024;8.630;2023-02-26T11:22:45;14.30;75.50
17938;DHT22;16051;53.024;8.630;2023-02-26T11:26:58;13.60;75.40
17938;DHT22;16051;53.024;8.630;2023-02-26T11:31:14;14.20;75.00
17938;DHT22;16051;53.024;8.630;2023-02-26T11:35:30;14.00;74.80
17938;DHT22;16051;53.024;8.630;2023-02-26T11:39:33;14.20;74.50
17938;DHT22;16051;53.024;8.630;2023-02-26T11:43:42;14.50;73.70
17938;DHT22;16051;53.024;8.630;2023-02-26T11:47:56;14.40;72.10
17938;DHT22;16051;53.024;8.630;2023-02-26T11:52:17;14.50;72.10
17938;DHT22;16051;53.024;8.630;2023-02-26T11:56:26;14.70;71.90
17938;DHT22;16051;53.024;8.630;2023-02-26T12:00:36;14.90;70.80
17938;DHT22;16051;53.024;8.630;2023-02-26T12:04:41;15.20;69.90
17938;DHT22;16051;53.024;8.630;2023-02-26T12:08:47;15.50;68.90
17938;DHT22;16051;53.024;8.630;2023-02-26T12:13:00;15.80;68.80
17938;DHT22;16051;53.024;8.630;2023-02-26T12:17:26;15.90;69.00
17938;DHT22;16051;53.024;8.630;2023-02-26T12:22:03;15.30;68.00
17938;DHT22;16051;53.024;8.630;2023-02-26T12:26:25;14.70;69.20
17938;DHT22;16051;53.024;8.630;2023-02-26T12:30:44;14.80;69.70
17938;DHT22;16051;53.024;8.630;2023-02-26T12:40:14;15.60;67.60
17938;DHT22;16051;53.024;8.630;2023-02-26T12:44:49;16.40;66.40
17938;DHT22;16051;53.024;8.630;2023-02-26T12:54:17;17.20;64.80
17938;DHT22;16051;53.024;8.630;2023-02-26T12:58:42;17.50;62.80
17938;DHT22;16051;53.024;8.630;2023-02-26T13:03:18;16.80;62.20
17938;DHT22;16051;53.024;8.630;2023-02-26T13:07:55;17.50;62.20
17938;DHT22;16051;53.024;8.630;2023-02-26T13:12:16;18.60;59.80
17938;DHT22;16051;53.024;8.630;2023-02-26T13:16:48;18.90;58.00
17938;DHT22;16051;53.024;8.630;2023-02-26T13:21:02;18.80;57.50
17938;DHT22;16051;53.024;8.630;2023-02-26T13:25:35;19.90;58.50
17938;DHT22;16051;53.024;8.630;2023-02-26T13:30:03;21.00;53.50
17938;DHT22;16051;53.024;8.630;2023-02-26T13:34:30;18.20;54.90
17938;DHT22;16051;53.024;8.630;2023-02-26T13:39:08;19.80;53.30
17938;DHT22;16051;53.024;8.630;2023-02-26T13:43:37;21.60;54.80
17938;DHT22;16051;53.024;8.630;2023-02-26T13:48:08;23.30;50.00
17938;DHT22;16051;53.024;8.630;2023-02-26T13:52:31;21.00;49.90
17938;DHT22;16051;53.024;8.630;2023-02-26T13:56:48;17.80;54.60
17938;DHT22;16051;53.024;8.630;2023-02-26T14:01:08;17.00;56.60
17938;DHT22;16051;53.024;8.630;2023-02-26T14:05:35;21.00;52.70
17938;DHT22;16051;53.024;8.630;2023-02-26T14:10:15;18.50;54.70
17938;DHT22;16051;53.024;8.630;2023-02-26T14:14:35;19.80;51.70
17938;DHT22;16051;53.024;8.630;2023-02-26T14:18:48;21.70;52.40
17938;DHT22;16051;53.024;8.630;2023-02-26T14:27:38;18.40;51.80
17938;DHT22;16051;53.024;8.630;2023-02-26T14:32:03;18.30;52.40
17938;DHT22;16051;53.024;8.630;2023-02-26T14:36:15;16.70;54.20
17938;DHT22;16051;53.024;8.630;2023-02-26T14:40:22;17.00;55.40
17938;DHT22;16051;53.024;8.630;2023-02-26T14:44:27;16.70;53.60
17938;DHT22;16051;53.024;8.630;2023-02-26T14:48:34;15.60;54.70
17938;DHT22;16051;53.024;8.630;2023-02-26T14:52:48;17.00;54.00
17938;DHT22;16051;53.024;8.630;2023-02-26T14:57:05;18.60;52.20
17938;DHT22;16051;53.024;8.630;2023-02-26T15:01:29;19.20;48.50
17938;DHT22;16051;53.024;8.630;2023-02-26T15:05:53;18.30;50.80
17938;DHT22;16051;53.024;8.630;2023-02-26T15:15:02;16.30;53.50
17938;DHT22;16051;53.024;8.630;2023-02-26T15:19:34;14.60;54.50
17938;DHT22;16051;53.024;8.630;2023-02-26T15:23:50;13.80;55.90
17938;DHT22;16051;53.024;8.630;2023-02-26T15:27:56;13.30;56.70
17938;DHT22;16051;53.024;8.630;2023-02-26T15:32:03;13.10;57.00
17938;DHT22;16051;53.024;8.630;2023-02-26T15:36:12;13.30;57.00
17938;DHT22;16051;53.024;8.630;2023-02-26T15:40:19;13.40;56.60
17938;DHT22;16051;53.024;8.630;2023-02-26T15:44:24;13.10;57.50
17938;DHT22;16051;53.024;8.630;2023-02-26T15:48:30;12.80;57.40
17938;DHT22;16051;53.024;8.630;2023-02-26T15:52:37;12.50;57.60
17938;DHT22;16051;53.024;8.630;2023-02-26T15:56:40;12.30;57.60
17938;DHT22;16051;53.024;8.630;2023-02-26T16:00:44;13.10;55.90
17938;DHT22;16051;53.024;8.630;2023-02-26T16:05:05;13.30;55.00
17938;DHT22;16051;53.024;8.630;2023-02-26T16:09:17;13.40;55.40
17938;DHT22;16051;53.024;8.630;2023-02-26T16:13:30;13.20;55.90
17938;DHT22;16051;53.024;8.630;2023-02-26T16:18:01;12.40;56.80
17938;DHT22;16051;53.024;8.630;2023-02-26T16:22:23;11.80;58.10
17938;DHT22;16051;53.024;8.630;2023-02-26T16:26:43;11.40;58.80
17938;DHT22;16051;53.024;8.630;2023-02-26T16:31:27;11.10;59.50
17938;DHT22;16051;53.024;8.630;2023-02-26T16:35:43;10.90;59.90
17938;DHT22;16051;53.024;8.630;2023-02-26T16:39:57;10.60;60.70
17938;DHT22;16051;53.024;8.630;2023-02-26T16:44:39;10.40;60.90
17938;DHT22;16051;53.024;8.630;2023-02-26T16:48:53;10.20;61.40
17938;DHT22;16051;53.024;8.630;2023-02-26T16:53:06;10.10;62.10
17938;DHT22;16051;53.024;8.630;2023-02-26T16:57:17;9.80;63.70
17938;DHT22;16051;53.024;8.630;2023-02-26T17:01:36;9.70;64.10
17938;DHT22;16051;53.024;8.630;2023-02-26T17:05:54;9.50;64.50
17938;DHT22;16051;53.024;8.630;2023-02-26T17:10:05;9.30;65.20
17938;DHT22;16051;53.024;8.630;2023-02-26T17:14:13;9.20;65.50
17938;DHT22;16051;53.024;8.630;2023-02-26T17:18:21;9.10;66.10
17938;DHT22;16051;53.024;8.630;2023-02-26T17:22:26;8.90;66.50
17938;DHT22;16051;53.024;8.630;2023-02-26T17:26:35;8.80;67.20
17938;DHT22;16051;53.024;8.630;2023-02-26T17:30:37;8.70;67.70
17938;DHT22;16051;53.024;8.630;2023-02-26T17:34:40;8.60;68.20
17938;DHT22;16051;53.024;8.630;2023-02-26T17:38:45;8.50;68.40
17938;DHT22;16051;53.024;8.630;2023-02-26T17:42:48;8.40;68.50
17938;DHT22;16051;53.024;8.630;2023-02-26T17:46:56;8.30;68.90
17938;DHT22;16051;53.024;8.630;2023-02-26T17:51:11;8.20;69.70
17938;DHT22;16051;53.024;8.630;2023-02-26T17:55:16;8.10;70.00
17938;DHT22;16051;53.024;8.630;2023-02-26T17:59:18;8.10;70.00
17938;DHT22;16051;53.024;8.630;2023-02-26T18:03:22;8.00;70.50
17938;DHT22;16051;53.024;8.630;2023-02-26T18:07:24;7.90;70.90
17938;DHT22;16051;53.024;8.630;2023-02-26T18:11:33;7.80;71.10
17938;DHT22;16051;53.024;8.630;2023-02-26T18:15:35;7.80;71.90
17938;DHT22;16051;53.024;8.630;2023-02-26T18:19:51;7.60;71.70
17938;DHT22;16051;53.024;8.630;2023-02-26T18:23:53;7.60;72.30
17938;DHT22;16051;53.024;8.630;2023-02-26T18:28:02;8.60;93.90
17938;DHT22;16051;53.024;8.630;2023-02-26T18:32:05;9.40;99.90
17938;DHT22;16051;53.024;8.630;2023-02-26T18:36:22;9.50;99.90
17938;DHT22;16051;53.024;8.630;2023-02-26T18:40:37;9.00;91.20
17938;DHT22;16051;53.024;8.630;2023-02-26T18:44:41;8.10;92.50
17938;DHT22;16051;53.024;8.630;2023-02-26T18:49:14;7.70;92.40
17938;DHT22;16051;53.024;8.630;2023-02-26T18:53:17;7.40;92.20
17938;DHT22;16051;53.024;8.630;2023-02-26T18:57:26;7.30;92.00
17938;DHT22;16051;53.024;8.630;2023-02-26T19:01:35;7.10;91.90
17938;DHT22;16051;53.024;8.630;2023-02-26T19:05:37;7.00;91.90
17938;DHT22;16051;53.024;8.630;2023-02-26T19:09:40;6.90;91.70
17938;DHT22;16051;53.024;8.630;2023-02-26T19:13:42;6.90;91.60
17938;DHT22;16051;53.024;8.630;2023-02-26T19:17:46;6.70;91.50
17938;DHT22;16051;53.024;8.630;2023-02-26T19:22:18;6.60;91.50
17938;DHT22;16051;53.024;8.630;2023-02-26T19:26:29;6.50;91.60
17938;DHT22;16051;53.024;8.630;2023-02-26T19:30:31;6.40;91.70
17938;DHT22;16051;53.024;8.630;2023-02-26T19:34:41;6.20;91.90
17938;DHT22;16051;53.024;8.630;2023-02-26T19:38:43;6.10;92.10
17938;DHT22;16051;53.024;8.630;2023-02-26T19:42:47;6.00;92.30
17938;DHT22;16051;53.024;8.630;2023-02-26T19:46:50;5.90;92.50
17938;DHT22;16051;53.024;8.630;2023-02-26T19:50:55;5.70;92.80
17938;DHT22;16051;53.024;8.630;2023-02-26T19:54:59;5.50;92.90
17938;DHT22;16051;53.024;8.630;2023-02-26T19:59:01;5.40;93.10
17938;DHT22;16051;53.024;8.630;2023-02-26T20:03:03;5.30;93.20
17938;DHT22;16051;53.024;8.630;2023-02-26T20:07:07;5.20;93.50
17938;DHT22;16051;53.024;8.630;2023-02-26T20:11:09;5.00;93.80
17938;DHT22;16051;53.024;8.630;2023-02-26T20:15:12;5.00;94.10
17938;DHT22;16051;53.024;8.630;2023-02-26T20:19:15;4.80;94.30
17938;DHT22;16051;53.024;8.630;2023-02-26T20:23:19;4.70;94.40
17938;DHT22;16051;53.024;8.630;2023-02-26T20:27:21;4.60;94.70
17938;DHT22;16051;53.024;8.630;2023-02-26T20:31:29;4.50;95.10
17938;DHT22;16051;53.024;8.630;2023-02-26T20:35:40;4.50;95.20
17938;DHT22;16051;53.024;8.630;2023-02-26T20:40:07;4.30;95.40
17938;DHT22;16051;53.024;8.630;2023-02-26T20:44:10;4.20;95.70
17938;DHT22;16051;53.024;8.630;2023-02-26T20:48:12;4.10;96.00
17938;DHT22;16051;53.024;8.630;2023-02-26T20:52:14;4.10;96.10
17938;DHT22;16051;53.024;8.630;2023-02-26T20:56:18;4.00;96.40
17938;DHT22;16051;53.024;8.630;2023-02-26T21:00:28;4.00;96.50
17938;DHT22;16051;53.024;8.630;2023-02-26T21:04:31;3.90;96.80
17938;DHT22;16051;53.024;8.630;2023-02-26T21:08:33;3.80;97.00
17938;DHT22;16051;53.024;8.630;2023-02-26T21:12:37;3.70;97.40
17938;DHT22;16051;53.024;8.630;2023-02-26T21:16:39;3.60;97.40
17938;DHT22;16051;53.024;8.630;2023-02-26T21:20:52;3.60;97.70
17938;DHT22;16051;53.024;8.630;2023-02-26T21:24:54;3.50;98.00
17938;DHT22;16051;53.024;8.630;2023-02-26T21:28:57;3.40;98.10
17938;DHT22;16051;53.024;8.630;2023-02-26T21:33:12;3.30;98.40
17938;DHT22;16051;53.024;8.630;2023-02-26T21:37:14;3.30;98.70
17938;DHT22;16051;53.024;8.630;2023-02-26T21:41:16;3.20;98.90
17938;DHT22;16051;53.024;8.630;2023-02-26T21:45:21;3.20;99.10
17938;DHT22;16051;53.024;8.630;2023-02-26T21:49:23;3.10;99.30
17938;DHT22;16051;53.024;8.630;2023-02-26T21:53:26;3.00;99.50
17938;DHT22;16051;53.024;8.630;2023-02-26T21:57:29;3.00;99.60
17938;DHT22;16051;53.024;8.630;2023-02-26T22:01:33;2.90;99.80
17938;DHT22;16051;53.024;8.630;2023-02-26T22:05:35;2.90;99.90
17938;DHT22;16051;53.024;8.630;2023-02-26T22:09:49;2.80;99.90
17938;DHT22;16051;53.024;8.630;2023-02-26T22:13:52;2.80;99.90
17938;DHT22;16051;53.024;8.630;2023-02-26T22:17:55;2.70;99.90
17938;DHT22;16051;53.024;8.630;2023-02-26T22:21:57;2.70;99.90
17938;DHT22;16051;53.024;8.630;2023-02-26T22:26:05;2.60;99.90
17938;DHT22;16051;53.024;8.630;2023-02-26T22:30:09;2.60;99.90
17938;DHT22;16051;53.024;8.630;2023-02-26T22:34:13;2.60;99.90
17938;DHT22;16051;53.024;8.630;2023-02-26T22:38:16;2.50;99.90
17938;DHT22;16051;53.024;8.630;2023-02-26T22:42:18;2.50;99.90
17938;DHT22;16051;53.024;8.630;2023-02-26T22:46:21;2.40;99.90
17938;DHT22;16051;53.024;8.630;2023-02-26T22:50:25;2.40;99.90
17938;DHT22;16051;53.024;8.630;2023-02-26T22:54:27;2.30;99.90
17938;DHT22;16051;53.024;8.630;2023-02-26T22:59:01;2.30;99.90
17938;DHT22;16051;53.024;8.630;2023-02-26T23:03:03;2.20;99.90
17938;DHT22;16051;53.024;8.630;2023-02-26T23:07:07;2.20;99.90
17938;DHT22;16051;53.024;8.630;2023-02-26T23:11:16;2.10;99.90
17938;DHT22;16051;53.024;8.630;2023-02-26T23:15:18;2.10;99.90
17938;DHT22;16051;53.024;8.630;2023-02-26T23:19:21;2.00;99.90
17938;DHT22;16051;53.024;8.630;2023-02-26T23:23:31;2.00;99.90
17938;DHT22;16051;53.024;8.630;2023-02-26T23:27:34;1.90;99.90
17938;DHT22;16051;53.024;8.630;2023-02-26T23:31:36;1.90;99.90
17938;DHT22;16051;53.024;8.630;2023-02-26T23:35:39;1.90;99.90
17938;DHT22;16051;53.024;8.630;2023-02-26T23:39:48;1.80;99.90
17938;DHT22;16051;53.024;8.630;2023-02-26T23:43:51;1.70;99.90
17938;DHT22;16051;53.024;8.630;2023-02-26T23:47:53;1.70;99.90
17938;DHT22;16051;53.024;8.630;2023-02-26T23:51:55;1.60;99.90
17938;DHT22;16051;53.024;8.630;2023-02-26T23:55:58;1.60;99.90
